createdAt,value
2023-03-14T00:01:50.472Z,100.00
2023-03-14T00:04:17.167Z,100.00
2023-03-14T00:06:44.011Z,100.00
2023-03-14T00:09:11.390Z,100.00
2023-03-14T00:11:38.889Z,100.00
2023-03-14T00:14:05.980Z,100.00
2023-03-14T00:16:34.110Z,100.00
2023-03-14T00:19:06.087Z,100.00
2023-03-14T00:21:32.866Z,100.00
2023-03-14T00:23:59.808Z,100.00
2023-03-14T00:26:26.921Z,100.00
2023-03-14T00:28:54.454Z,100.00
2023-03-14T03:21:11.429Z,100.00
2023-03-14T03:23:38.653Z,100.00
2023-03-14T03:26:10.655Z,100.00
2023-03-14T03:28:38.750Z,100.00
2023-03-14T03:31:10.364Z,100.00
2023-03-14T03:33:41.542Z,100.00
2023-03-14T03:36:09.852Z,100.00
2023-03-14T03:38:36.825Z,100.00
2023-03-14T03:41:06.104Z,100.00
2023-03-14T03:43:33.163Z,100.00
2023-03-14T03:46:00.967Z,100.00
2023-03-14T03:48:30.911Z,100.00
2023-03-14T03:50:58.063Z,100.00
2023-03-14T03:53:33.109Z,100.00
2023-03-14T03:56:03.342Z,100.00
2023-03-14T03:58:30.355Z,100.00
2023-03-14T04:00:57.173Z,100.00
2023-03-14T04:03:24.139Z,100.00
2023-03-14T04:06:09.422Z,100.00
2023-03-14T04:08:36.640Z,100.00
2023-03-14T04:11:03.945Z,100.00
2023-03-14T04:13:33.391Z,100.00
2023-03-14T04:16:00.347Z,100.00
2023-03-14T04:18:45.214Z,100.00
2023-03-14T04:21:12.474Z,100.00
2023-03-14T04:23:41.902Z,100.00
2023-03-14T04:26:09.255Z,100.00
2023-03-14T04:28:42.028Z,100.00
2023-03-14T04:31:16.756Z,100.00
2023-03-14T04:33:45.690Z,100.00
2023-03-14T04:36:13.921Z,100.00
2023-03-14T04:38:41.432Z,100.00
2023-03-14T04:41:08.537Z,100.00
2023-03-14T04:43:35.732Z,100.00
2023-03-14T04:46:05.087Z,100.00
2023-03-14T04:48:36.291Z,100.00
2023-03-14T04:51:06.849Z,100.00
2023-03-14T04:53:43.256Z,100.00
2023-03-14T04:56:16.070Z,100.00
2023-03-14T04:58:45.752Z,100.00
2023-03-14T05:01:12.817Z,100.00
2023-03-14T05:03:51.159Z,100.00
2023-03-14T05:06:17.926Z,100.00
2023-03-14T05:08:45.201Z,100.00
2023-03-14T05:11:13.508Z,100.00
2023-03-14T05:13:43.379Z,100.00
2023-03-14T05:16:14.877Z,100.00
2023-03-14T05:18:41.839Z,100.00
2023-03-14T05:21:08.882Z,100.00
2023-03-14T05:23:35.905Z,100.00
2023-03-14T05:26:04.888Z,100.00
2023-03-14T05:28:31.808Z,100.00
2023-03-14T05:30:59.006Z,100.00
2023-03-14T05:33:25.905Z,100.00
2023-03-14T05:35:52.987Z,100.00
2023-03-14T05:38:20.139Z,100.00
2023-03-14T05:40:48.028Z,100.00
2023-03-14T05:43:16.414Z,100.00
2023-03-14T05:45:46.679Z,100.00
2023-03-14T05:48:13.478Z,100.00
2023-03-14T05:50:40.389Z,100.00
2023-03-14T05:53:07.535Z,100.00
2023-03-14T05:55:37.091Z,100.00
2023-03-14T05:58:04.473Z,100.00
2023-03-14T06:01:23.580Z,100.00
2023-03-14T06:03:50.538Z,100.00
2023-03-14T06:06:17.985Z,100.00
2023-03-14T06:08:44.774Z,100.00
2023-03-14T06:11:12.145Z,100.00
2023-03-14T06:13:38.953Z,100.00
2023-03-14T06:16:09.177Z,100.00
2023-03-14T06:18:36.153Z,100.00
2023-03-14T06:21:03.049Z,100.00
2023-03-14T06:23:31.822Z,100.00
2023-03-14T06:25:59.240Z,100.00
2023-03-14T06:28:26.352Z,100.00
2023-03-14T06:30:53.311Z,100.00
2023-03-14T06:33:20.114Z,100.00
2023-03-14T06:35:47.028Z,100.00
2023-03-14T06:38:14.069Z,100.00
2023-03-14T06:40:40.964Z,100.00
2023-03-14T06:43:08.002Z,100.00
2023-03-14T06:45:37.374Z,100.00
2023-03-14T06:48:04.635Z,100.00
2023-03-14T06:50:31.681Z,100.00
2023-03-14T06:53:06.739Z,100.00
2023-03-14T06:55:33.724Z,100.00
2023-03-14T06:58:34.756Z,100.00
2023-03-14T07:01:02.006Z,100.00
2023-03-14T07:03:28.973Z,100.00
2023-03-14T07:06:03.642Z,100.00
2023-03-14T07:08:36.146Z,100.00
2023-03-14T07:11:05.624Z,100.00
2023-03-14T07:13:32.820Z,100.00
2023-03-14T07:16:02.597Z,100.00
2023-03-14T07:18:44.720Z,100.00
2023-03-14T07:21:33.071Z,100.00
2023-03-14T07:24:01.125Z,100.00
2023-03-14T07:26:31.162Z,100.00
2023-03-14T07:28:58.039Z,100.00
2023-03-14T07:31:27.597Z,100.00
2023-03-14T07:33:54.674Z,100.00
2023-03-14T07:36:24.270Z,100.00
2023-03-14T07:38:51.211Z,100.00
2023-03-14T07:41:18.117Z,100.00
2023-03-14T07:43:45.343Z,100.00
2023-03-14T07:46:15.642Z,100.00
2023-03-14T07:48:42.949Z,100.00
2023-03-14T07:51:10.309Z,100.00
2023-03-14T07:53:40.502Z,100.00
2023-03-14T07:56:09.240Z,100.00
2023-03-14T07:58:39.303Z,100.00
2023-03-14T08:01:06.976Z,100.00
2023-03-14T08:03:37.377Z,100.00
2023-03-14T08:06:08.085Z,100.00
2023-03-14T08:08:48.785Z,100.00
2023-03-14T08:11:21.378Z,100.00
2023-03-14T08:13:50.903Z,100.00
2023-03-14T08:16:21.629Z,100.00
2023-03-14T08:18:49.009Z,100.00
2023-03-14T08:21:18.973Z,100.00
2023-03-14T08:23:48.975Z,100.00
2023-03-14T08:26:15.894Z,100.00
2023-03-14T08:28:42.768Z,100.00
2023-03-14T08:31:12.984Z,100.00
2023-03-14T08:33:40.418Z,100.00
2023-03-14T08:36:08.150Z,100.00
2023-03-14T08:41:16.364Z,100.00
2023-03-14T08:43:49.258Z,100.00
2023-03-14T08:46:22.108Z,100.00
2023-03-14T08:48:52.072Z,100.00
2023-03-14T08:51:55.205Z,100.00
2023-03-14T08:54:23.195Z,100.00
2023-03-14T08:56:59.267Z,100.00
2023-03-14T09:00:03.288Z,100.00
2023-03-14T09:02:43.691Z,100.00
2023-03-14T09:08:31.270Z,100.00
2023-03-14T09:11:45.469Z,100.00
2023-03-14T09:14:15.046Z,100.00
2023-03-14T09:16:56.214Z,100.00
2023-03-14T09:22:16.536Z,100.00
2023-03-14T09:24:46.571Z,100.00
2023-03-14T09:27:29.039Z,100.00
2023-03-14T09:30:05.225Z,100.00
2023-03-14T09:33:00.498Z,100.00
2023-03-14T09:35:41.978Z,100.00
2023-03-14T09:38:29.526Z,100.00
2023-03-14T09:41:18.834Z,100.00
2023-03-14T09:44:29.913Z,100.00
2023-03-14T09:47:22.024Z,100.00
2023-03-14T09:50:05.031Z,100.00
2023-03-14T09:58:20.380Z,100.00
2023-03-14T10:03:40.887Z,100.00
2023-03-14T10:06:15.185Z,100.00
2023-03-14T10:08:50.903Z,100.00
2023-03-14T10:11:19.446Z,100.00
2023-03-14T10:13:53.359Z,100.00
2023-03-14T10:19:16.169Z,100.00
2023-03-14T10:21:58.501Z,100.00
2023-03-14T10:24:31.352Z,100.00
2023-03-14T10:27:04.131Z,100.00
2023-03-14T10:29:32.958Z,100.00
2023-03-14T10:32:02.466Z,100.00
2023-03-14T10:34:40.380Z,100.00
2023-03-14T10:37:19.419Z,100.00
2023-03-14T10:39:54.208Z,100.00
2023-03-14T10:42:39.893Z,100.00
2023-03-14T10:45:25.575Z,100.00
2023-03-14T10:47:56.927Z,100.00
2023-03-14T10:50:41.169Z,100.00
2023-03-14T10:53:12.995Z,100.00
2023-03-14T10:55:46.405Z,100.00
2023-03-14T10:58:32.631Z,100.00
2023-03-14T11:01:31.443Z,100.00
2023-03-14T11:04:21.404Z,100.00
2023-03-14T11:07:06.769Z,100.00
2023-03-14T11:09:55.092Z,100.00
2023-03-14T11:12:39.694Z,100.00
2023-03-14T11:15:36.797Z,100.00
2023-03-14T11:18:41.168Z,100.00
2023-03-14T11:21:16.768Z,100.00
2023-03-14T11:24:22.524Z,100.00
2023-03-14T11:27:07.798Z,100.00
2023-03-14T11:29:35.023Z,100.00
2023-03-14T11:32:10.141Z,100.00
2023-03-14T11:34:42.384Z,100.00
2023-03-14T11:37:31.546Z,100.00
2023-03-14T11:40:16.202Z,100.00
2023-03-14T11:43:07.853Z,100.00
2023-03-14T11:45:38.726Z,100.00
2023-03-14T11:48:08.518Z,100.00
2023-03-14T11:50:54.503Z,94.63
2023-03-14T11:53:31.658Z,95.21
2023-03-14T11:55:59.018Z,95.03
2023-03-14T11:58:32.323Z,91.40
2023-03-14T12:01:08.155Z,86.41
2023-03-14T12:03:46.584Z,83.70
2023-03-14T12:06:28.456Z,82.74
2023-03-14T12:09:00.073Z,76.90
2023-03-14T12:11:34.139Z,75.89
2023-03-14T12:14:01.627Z,73.72
2023-03-14T12:16:35.611Z,69.85
2023-03-14T12:19:27.470Z,67.90
2023-03-14T12:24:51.567Z,66.79
2023-03-14T12:27:40.359Z,74.73
2023-03-14T12:30:17.486Z,70.24
2023-03-14T12:33:15.283Z,70.71
2023-03-14T12:35:49.591Z,69.69
2023-03-14T12:38:35.202Z,67.63
2023-03-14T12:41:24.209Z,66.70
2023-03-14T12:43:55.028Z,68.44
2023-03-14T12:46:51.498Z,66.00
2023-03-14T12:49:25.455Z,67.01
2023-03-14T12:52:02.717Z,64.59
2023-03-14T12:54:57.968Z,66.66
2023-03-14T12:57:49.043Z,67.56
2023-03-14T13:00:31.607Z,66.30
2023-03-14T13:03:24.942Z,65.69
2023-03-14T13:06:01.908Z,64.42
2023-03-14T13:08:52.882Z,63.38
2023-03-14T13:11:24.635Z,60.46
2023-03-14T13:14:03.716Z,59.46
2023-03-14T13:16:40.281Z,59.63
2023-03-14T13:19:23.669Z,59.86
2023-03-14T13:22:15.230Z,61.91
2023-03-14T13:24:50.362Z,63.02
2023-03-14T13:27:35.489Z,62.88
2023-03-14T13:30:25.422Z,62.49
2023-03-14T13:40:14.034Z,60.46
2023-03-14T13:43:00.399Z,64.26
2023-03-14T13:45:37.645Z,66.02
2023-03-14T13:48:18.303Z,71.44
2023-03-14T13:51:30.241Z,69.69
2023-03-14T13:59:03.042Z,76.27
2023-03-14T14:01:42.003Z,77.50
2023-03-14T14:04:17.329Z,80.01
2023-03-14T14:06:53.978Z,83.40
2023-03-14T14:09:29.270Z,80.59
2023-03-14T14:12:25.018Z,75.84
2023-03-14T14:15:25.473Z,75.45
2023-03-14T14:18:06.889Z,71.79
2023-03-14T14:21:15.364Z,73.10
2023-03-14T14:23:51.437Z,71.63
2023-03-14T14:26:39.050Z,73.48
2023-03-14T14:29:24.382Z,73.19
2023-03-14T14:32:17.720Z,69.36
2023-03-14T14:34:58.166Z,78.09
2023-03-14T14:37:41.532Z,75.06
2023-03-14T14:41:20.309Z,76.57
2023-03-14T14:44:24.306Z,77.59
2023-03-14T15:01:39.832Z,82.97
2023-03-14T15:04:55.581Z,83.83
2023-03-14T15:07:27.204Z,82.70
2023-03-14T15:09:57.681Z,82.33
2023-03-14T15:12:25.989Z,81.89
2023-03-14T15:14:53.234Z,81.55
2023-03-14T15:17:23.386Z,79.70
2023-03-14T15:19:56.452Z,80.33
2023-03-14T15:22:23.444Z,77.08
2023-03-14T15:24:59.722Z,76.11
2023-03-14T15:27:32.035Z,73.27
2023-03-14T15:30:01.387Z,74.13
2023-03-14T15:32:31.795Z,74.14
2023-03-14T15:35:01.880Z,70.76
2023-03-14T15:37:29.272Z,71.91
2023-03-14T15:39:59.497Z,72.98
2023-03-14T15:42:29.496Z,72.50
2023-03-14T15:44:59.296Z,70.83
2023-03-14T15:47:31.515Z,72.77
2023-03-14T15:50:04.880Z,70.29
2023-03-14T15:52:41.801Z,73.16
2023-03-14T15:55:26.843Z,74.06
2023-03-14T15:57:54.278Z,73.31
2023-03-14T16:00:25.938Z,74.04
2023-03-14T16:03:06.628Z,74.82
2023-03-14T16:05:35.878Z,75.67
2023-03-14T16:08:17.312Z,75.31
2023-03-14T16:10:50.089Z,74.77
2023-03-14T16:13:22.616Z,75.10
2023-03-14T16:16:05.168Z,75.22
2023-03-14T16:18:42.985Z,77.67
2023-03-14T16:21:18.933Z,76.24
2023-03-14T16:23:49.228Z,73.45
2023-03-14T16:26:22.200Z,75.10
2023-03-14T16:28:49.794Z,72.98
2023-03-14T16:31:19.569Z,72.22
2023-03-14T16:33:48.349Z,72.91
2023-03-14T16:36:17.939Z,71.71
2023-03-14T16:38:50.646Z,70.70
2023-03-14T16:41:39.165Z,68.87
2023-03-14T16:44:06.827Z,69.99
2023-03-14T16:46:50.710Z,67.21
2023-03-14T16:49:18.154Z,63.26
2023-03-14T16:52:00.204Z,62.10
2023-03-14T16:54:35.263Z,64.87
2023-03-14T16:57:17.651Z,58.74
2023-03-14T16:59:47.608Z,57.67
2023-03-14T17:02:51.880Z,55.15
2023-03-14T17:05:49.604Z,54.91
2023-03-14T17:08:21.796Z,53.68
2023-03-14T17:10:51.346Z,53.69
2023-03-14T17:13:23.533Z,53.36
2023-03-14T17:15:55.240Z,51.96
2023-03-14T17:18:58.255Z,52.16
2023-03-14T17:21:36.844Z,49.52
2023-03-14T17:24:12.708Z,48.66
2023-03-14T17:26:41.231Z,48.81
2023-03-14T17:29:32.925Z,48.31
2023-03-14T17:33:30.867Z,48.31
2023-03-14T17:36:21.621Z,47.65
2023-03-14T17:41:35.817Z,47.93
2023-03-14T17:44:05.863Z,46.05
2023-03-14T17:46:44.751Z,46.06
2023-03-14T17:49:14.982Z,46.37
2023-03-14T17:51:48.273Z,45.81
2023-03-14T17:54:17.707Z,45.24
2023-03-14T17:56:51.507Z,45.23
2023-03-14T17:59:21.109Z,44.89
2023-03-14T18:01:58.685Z,44.35
2023-03-14T18:04:32.348Z,43.46
2023-03-14T18:22:43.901Z,43.95
2023-03-14T18:24:50.881Z,45.15
2023-03-14T18:27:20.738Z,44.17
2023-03-14T18:29:50.713Z,44.49
2023-03-14T18:32:29.089Z,44.00
2023-03-14T18:35:04.824Z,43.45
2023-03-14T18:37:38.034Z,43.45
2023-03-14T18:40:15.089Z,43.91
2023-03-14T18:42:47.213Z,44.04
2023-03-14T18:45:22.813Z,44.67
2023-03-14T18:47:50.095Z,44.88
2023-03-14T18:50:17.717Z,44.04
2023-03-14T18:52:49.431Z,43.70
2023-03-14T18:55:42.425Z,43.18
2023-03-14T18:58:09.676Z,43.52
2023-03-14T19:00:41.734Z,42.52
2023-03-14T19:03:11.951Z,43.47
2023-03-14T19:06:05.584Z,43.64
2023-03-14T19:08:42.474Z,43.70
2023-03-14T19:11:12.883Z,43.50
2023-03-14T19:13:42.940Z,44.11
2023-03-14T19:16:15.112Z,43.71
2023-03-14T19:18:50.836Z,44.32
2023-03-14T19:21:37.739Z,45.02
2023-03-14T19:24:18.764Z,44.97
2023-03-14T19:26:55.914Z,46.27
2023-03-14T19:29:28.936Z,46.43
2023-03-14T19:32:00.198Z,46.52
2023-03-14T19:34:33.017Z,45.69
2023-03-14T19:37:53.683Z,45.41
2023-03-14T19:40:28.180Z,45.13
2023-03-14T19:42:58.576Z,45.38
2023-03-14T19:45:30.964Z,44.72
2023-03-14T19:48:07.035Z,45.26
2023-03-14T19:50:50.053Z,46.68
2023-03-14T19:53:24.835Z,48.13
2023-03-14T19:55:58.199Z,49.47
2023-03-14T19:58:25.805Z,50.06
2023-03-14T20:01:06.026Z,52.44
2023-03-14T20:03:45.265Z,54.79
2023-03-14T20:09:41.604Z,60.04
2023-03-14T20:15:45.330Z,66.07
2023-03-14T20:19:24.459Z,71.13
2023-03-14T20:22:18.761Z,76.50
2023-03-14T20:26:00.576Z,79.43
2023-03-14T20:39:12.521Z,90.35
2023-03-14T20:41:52.856Z,93.42
2023-03-14T20:44:23.083Z,95.03
2023-03-14T20:46:57.840Z,99.20
2023-03-14T20:52:34.394Z,100.00
2023-03-14T20:55:19.781Z,100.00
2023-03-14T20:57:53.909Z,100.00
2023-03-14T21:03:10.376Z,100.00
2023-03-14T21:05:51.957Z,100.00
2023-03-14T21:08:36.367Z,100.00
2023-03-14T21:11:09.973Z,100.00
2023-03-14T21:13:40.478Z,100.00
2023-03-14T21:16:15.504Z,100.00
2023-03-14T21:18:56.249Z,100.00
2023-03-14T21:21:29.001Z,100.00
2023-03-14T21:23:57.230Z,100.00
2023-03-14T21:26:25.135Z,100.00
2023-03-14T21:28:55.131Z,100.00
2023-03-14T21:31:22.999Z,100.00
2023-03-14T21:33:50.305Z,100.00
2023-03-14T21:36:18.732Z,100.00
2023-03-14T21:38:45.779Z,100.00
2023-03-14T21:41:24.329Z,100.00
2023-03-14T21:43:51.484Z,100.00
2023-03-14T21:46:23.317Z,100.00
2023-03-14T21:48:54.160Z,100.00
2023-03-14T21:51:21.626Z,100.00
2023-03-14T21:53:48.942Z,100.00
2023-03-14T21:56:16.090Z,100.00
2023-03-14T21:58:49.558Z,100.00
2023-03-14T22:01:16.494Z,100.00
2023-03-14T22:03:46.304Z,100.00
2023-03-14T22:06:13.738Z,100.00
2023-03-14T22:08:40.839Z,100.00
2023-03-14T22:11:11.007Z,100.00
2023-03-14T22:13:41.098Z,100.00
2023-03-14T22:16:08.437Z,100.00
2023-03-14T22:18:35.736Z,100.00
2023-03-14T22:21:05.811Z,100.00
2023-03-14T22:23:37.064Z,100.00
2023-03-14T22:26:08.253Z,100.00
2023-03-14T22:28:43.766Z,100.00
2023-03-14T22:31:11.335Z,100.00
2023-03-14T22:33:38.312Z,100.00
2023-03-14T22:36:08.711Z,100.00
2023-03-14T22:38:35.606Z,100.00
2023-03-14T22:41:03.134Z,100.00
2023-03-14T22:43:30.984Z,100.00
2023-03-14T22:46:01.692Z,100.00
2023-03-14T22:48:28.927Z,100.00
2023-03-14T22:50:56.148Z,100.00
2023-03-14T22:53:23.036Z,100.00
2023-03-14T22:56:00.690Z,100.00
2023-03-14T22:58:28.203Z,100.00
2023-03-14T23:00:58.142Z,100.00
2023-03-14T23:03:29.940Z,100.00
2023-03-14T23:06:01.945Z,100.00
2023-03-14T23:08:29.427Z,100.00
2023-03-14T23:11:09.642Z,100.00
2023-03-14T23:13:41.130Z,100.00
2023-03-14T23:16:15.433Z,100.00
2023-03-14T23:18:48.892Z,100.00
2023-03-14T23:21:20.806Z,100.00
2023-03-14T23:23:50.445Z,100.00
2023-03-14T23:26:55.653Z,100.00
2023-03-14T23:29:25.920Z,100.00
2023-03-14T23:32:07.157Z,100.00
2023-03-14T23:34:40.883Z,100.00
2023-03-14T23:37:22.880Z,100.00
2023-03-14T23:39:55.963Z,100.00
2023-03-14T23:42:28.405Z,100.00
2023-03-14T23:45:07.441Z,100.00
2023-03-14T23:47:39.181Z,100.00
2023-03-14T23:50:06.361Z,100.00
2023-03-14T23:52:46.013Z,100.00
2023-03-14T23:55:17.558Z,100.00
2023-03-14T23:58:00.578Z,100.00
